Impacts METAR Board
IDs:

KCLE - Cleveland/Hopkins In, OH, US

Updated at: 2200 UTC 25 May 2018
Potential Impact None Slight Moderate High
Time 25/10Z 25/11Z 25/12Z 25/13Z 25/14Z 25/15Z 25/16Z 25/17Z 25/18Z 25/19Z 25/20Z 25/21Z 25/22Z
Temp55 60 66 73 77 80 81 82 83 83 84 84 84
Dewpt50 51 56 55 57 54 55 54 52 51 53 54 54
Altim30.05 30.05 30.05 30.03 30.03 30.02 30.01 29.98 29.97 29.95 29.93 29.90 29.88
VIS10 10 10 10 10 10 10 10 10 10 10 10 10
CIG-- -- -- -- -- -- -- -- -- -- -- -- --
CoverSCTSCTSCTSCTSCTSCTFEWFEWFEWFEWFEWFEWFEW
FltCatVFRVFRVFRVFRVFRVFRVFRVFRVFRVFRVFRVFRVFR
WX--------------------------
WDir01700210240260180240270210230210240
WSpd0 4 0 5 6 9 5 6 5 8 9 9 10
WGst-- -- -- -- -- -- -- -- -- -- -- -- --
Raw hourly METARs
KCLE 250951Z 00000KT 10SM SCT250 13/10 A3005 RMK AO2 SLP174 T01280100 $
KCLE 251051Z 17004KT 10SM SCT250 16/11 A3005 RMK AO2 SLP173 T01560106 $
KCLE 251151Z 00000KT 10SM SCT250 19/13 A3005 RMK AO2 SLP170 T01890133 10189 20122 56005 $
KCLE 251251Z 21005KT 10SM SCT250 23/13 A3003 RMK AO2 SLP165 T02280128 $
KCLE 251351Z 24006KT 10SM SCT250 25/14 A3003 RMK AO2 SLP164 T02500139 $
KCLE 251451Z 26009KT 10SM SCT250 27/12 A3002 RMK AO2 SLP161 T02670122 56008 $
KCLE 251551Z 18005KT 10SM FEW250 27/13 A3001 RMK AO2 SLP156 T02720128 $
KCLE 251651Z 24006KT 10SM FEW250 28/12 A2998 RMK AO2 SLP149 T02780122 $
KCLE 251751Z 27005KT 10SM FEW250 28/11 A2997 RMK AO2 SLP142 T02830111 10289 20189 58018 $
KCLE 251851Z 21008KT 10SM FEW250 28/11 A2995 RMK AO2 SLP138 T02830106 $
KCLE 251951Z 23009KT 10SM FEW250 29/12 A2993 RMK AO2 SLP131 T02890117 $
KCLE 252051Z 21009KT 10SM FEW250 29/12 A2990 RMK AO2 SLP122 T02890122 58021 $
KCLE 252151Z 24010KT 10SM FEW250 29/12 A2988 RMK AO2 SLP114 T02890122 $



Page loaded:  22:17 UTC  |   03:17 PM Pacific  |   04:17 PM Mountain  |   05:17 PM Central  |   06:17 PM Eastern

 

ADVISORIES

FORECASTS

FORECASTS

OBSERVATIONS

USER TOOLS

ABOUT US